sensor_id;sensor_type;location;lat;lon;timestamp;pressure;altitude;pressure_sealevel;temperature
60731;BMP280;46580;52.114;11.674;2024-01-15T00:01:44;-19280.78;;;2.65
60731;BMP280;46580;52.114;11.674;2024-01-15T00:04:09;-19282.34;;;2.70
60731;BMP280;46580;52.114;11.674;2024-01-15T00:06:35;-19282.66;;;2.71
60731;BMP280;46580;52.114;11.674;2024-01-15T00:09:00;-19282.94;;;2.72
60731;BMP280;46580;52.114;11.674;2024-01-15T00:11:26;-19283.78;;;2.75
60731;BMP280;46580;52.114;11.674;2024-01-15T00:13:52;-19282.34;;;2.70
60731;BMP280;46580;52.114;11.674;2024-01-15T00:16:17;-19282.34;;;2.70
60731;BMP280;46580;52.114;11.674;2024-01-15T00:18:43;-19282.94;;;2.72
60731;BMP280;46580;52.114;11.674;2024-01-15T00:21:08;-19283.50;;;2.74
60731;BMP280;46580;52.114;11.674;2024-01-15T00:23:33;-19282.66;;;2.71
60731;BMP280;46580;52.114;11.674;2024-01-15T00:25:59;-19283.06;;;2.73
60731;BMP280;46580;52.114;11.674;2024-01-15T00:28:24;-19282.50;;;2.71
60731;BMP280;46580;52.114;11.674;2024-01-15T00:30:50;-19282.78;;;2.72
60731;BMP280;46580;52.114;11.674;2024-01-15T00:33:15;-19282.34;;;2.70
60731;BMP280;46580;52.114;11.674;2024-01-15T00:35:40;-19282.34;;;2.70
60731;BMP280;46580;52.114;11.674;2024-01-15T00:38:06;-19281.94;;;2.69
60731;BMP280;46580;52.114;11.674;2024-01-15T00:40:32;-19280.50;;;2.64
60731;BMP280;46580;52.114;11.674;2024-01-15T00:42:58;-19280.19;;;2.63
60731;BMP280;46580;52.114;11.674;2024-01-15T00:45:23;-19278.06;;;2.56
60731;BMP280;46580;52.114;11.674;2024-01-15T00:47:49;-19276.91;;;2.52
60731;BMP280;46580;52.114;11.674;2024-01-15T00:50:14;-19276.03;;;2.49
60731;BMP280;46580;52.114;11.674;2024-01-15T00:52:40;-19276.59;;;2.51
60731;BMP280;46580;52.114;11.674;2024-01-15T00:55:05;-19277.63;;;2.54
60731;BMP280;46580;52.114;11.674;2024-01-15T00:57:31;-19277.31;;;2.53
60731;BMP280;46580;52.114;11.674;2024-01-15T00:59:56;-19277.63;;;2.54
60731;BMP280;46580;52.114;11.674;2024-01-15T01:02:22;-19277.75;;;2.55
60731;BMP280;46580;52.114;11.674;2024-01-15T01:04:47;-19278.06;;;2.56
60731;BMP280;46580;52.114;11.674;2024-01-15T01:07:13;-19279.19;;;2.59
60731;BMP280;46580;52.114;11.674;2024-01-15T01:09:38;-19279.78;;;2.61
60731;BMP280;46580;52.114;11.674;2024-01-15T01:12:04;-19279.19;;;2.59
60731;BMP280;46580;52.114;11.674;2024-01-15T01:14:30;-19279.34;;;2.60
60731;BMP280;46580;52.114;11.674;2024-01-15T01:16:55;-19277.19;;;2.53
60731;BMP280;46580;52.114;11.674;2024-01-15T01:19:20;-19276.03;;;2.49
60731;BMP280;46580;52.114;11.674;2024-01-15T01:21:46;-19274.31;;;2.43
60731;BMP280;46580;52.114;11.674;2024-01-15T01:24:11;-19274.59;;;2.44
60731;BMP280;46580;52.114;11.674;2024-01-15T01:26:36;-19274.88;;;2.45
60731;BMP280;46580;52.114;11.674;2024-01-15T01:29:02;-19274.88;;;2.45
60731;BMP280;46580;52.114;11.674;2024-01-15T01:31:27;-19275.31;;;2.46
60731;BMP280;46580;52.114;11.674;2024-01-15T01:33:53;-19275.47;;;2.47
60731;BMP280;46580;52.114;11.674;2024-01-15T01:36:18;-19275.16;;;2.46
60731;BMP280;46580;52.114;11.674;2024-01-15T01:38:43;-19274.75;;;2.44
60731;BMP280;46580;52.114;11.674;2024-01-15T01:41:09;-19274.88;;;2.45
60731;BMP280;46580;52.114;11.674;2024-01-15T01:43:35;-19273.72;;;2.41
60731;BMP280;46580;52.114;11.674;2024-01-15T01:46:01;-19273.44;;;2.40
60731;BMP280;46580;52.114;11.674;2024-01-15T01:48:28;-19273.16;;;2.39
60731;BMP280;46580;52.114;11.674;2024-01-15T01:50:58;-19272.72;;;2.38
60731;BMP280;46580;52.114;11.674;2024-01-15T01:53:28;-19272.16;;;2.36
60731;BMP280;46580;52.114;11.674;2024-01-15T01:55:55;-19270.56;;;2.30
60731;BMP280;46580;52.114;11.674;2024-01-15T01:58:22;-19271.44;;;2.33
60731;BMP280;46580;52.114;11.674;2024-01-15T02:00:48;-19270.84;;;2.31
60731;BMP280;46580;52.114;11.674;2024-01-15T02:03:14;-19270.28;;;2.29
60731;BMP280;46580;52.114;11.674;2024-01-15T02:05:42;-19271.72;;;2.34
60731;BMP280;46580;52.114;11.674;2024-01-15T02:08:09;-19271.16;;;2.32
60731;BMP280;46580;52.114;11.674;2024-01-15T02:10:35;-19271.44;;;2.33
60731;BMP280;46580;52.114;11.674;2024-01-15T02:13:00;-19271.72;;;2.34
60731;BMP280;46580;52.114;11.674;2024-01-15T02:15:25;-19271.44;;;2.33
60731;BMP280;46580;52.114;11.674;2024-01-15T02:17:58;-19271.72;;;2.34
60731;BMP280;46580;52.114;11.674;2024-01-15T02:20:24;-19272.28;;;2.36
60731;BMP280;46580;52.114;11.674;2024-01-15T02:22:50;-19270.56;;;2.30
60731;BMP280;46580;52.114;11.674;2024-01-15T02:25:15;-19270.00;;;2.28
60731;BMP280;46580;52.114;11.674;2024-01-15T02:27:41;-19270.56;;;2.30
60731;BMP280;46580;52.114;11.674;2024-01-15T02:30:08;-19270.16;;;2.29
60731;BMP280;46580;52.114;11.674;2024-01-15T02:32:34;-19269.13;;;2.25
60731;BMP280;46580;52.114;11.674;2024-01-15T02:35:00;-19268.84;;;2.24
60731;BMP280;46580;52.114;11.674;2024-01-15T02:37:25;-19267.25;;;2.19
60731;BMP280;46580;52.114;11.674;2024-01-15T02:39:51;-19269.41;;;2.26
60731;BMP280;46580;52.114;11.674;2024-01-15T02:42:16;-19270.28;;;2.29
60731;BMP280;46580;52.114;11.674;2024-01-15T02:44:42;-19270.84;;;2.31
60731;BMP280;46580;52.114;11.674;2024-01-15T02:47:07;-19271.44;;;2.33
60731;BMP280;46580;52.114;11.674;2024-01-15T02:49:32;-19272.00;;;2.35
60731;BMP280;46580;52.114;11.674;2024-01-15T02:51:58;-19273.44;;;2.40
60731;BMP280;46580;52.114;11.674;2024-01-15T02:54:23;-19274.03;;;2.42
60731;BMP280;46580;52.114;11.674;2024-01-15T02:56:48;-19274.88;;;2.45
60731;BMP280;46580;52.114;11.674;2024-01-15T02:59:14;-19274.88;;;2.45
60731;BMP280;46580;52.114;11.674;2024-01-15T03:01:39;-19274.59;;;2.44
60731;BMP280;46580;52.114;11.674;2024-01-15T03:04:04;-19273.88;;;2.41
60731;BMP280;46580;52.114;11.674;2024-01-15T03:06:30;-19273.31;;;2.40
60731;BMP280;46580;52.114;11.674;2024-01-15T03:08:55;-19272.88;;;2.38
60731;BMP280;46580;52.114;11.674;2024-01-15T03:11:21;-19272.28;;;2.36
60731;BMP280;46580;52.114;11.674;2024-01-15T03:13:46;-19271.44;;;2.33
60731;BMP280;46580;52.114;11.674;2024-01-15T03:16:11;-19273.16;;;2.39
60731;BMP280;46580;52.114;11.674;2024-01-15T03:18:37;-19273.44;;;2.40
60731;BMP280;46580;52.114;11.674;2024-01-15T03:21:02;-19274.03;;;2.42
60731;BMP280;46580;52.114;11.674;2024-01-15T03:23:28;-19273.44;;;2.40
60731;BMP280;46580;52.114;11.674;2024-01-15T03:25:53;-19273.72;;;2.41
60731;BMP280;46580;52.114;11.674;2024-01-15T03:28:19;-19273.72;;;2.41
60731;BMP280;46580;52.114;11.674;2024-01-15T03:30:44;-19273.88;;;2.41
60731;BMP280;46580;52.114;11.674;2024-01-15T03:33:09;-19273.72;;;2.41
60731;BMP280;46580;52.114;11.674;2024-01-15T03:35:35;-19274.31;;;2.43
60731;BMP280;46580;52.114;11.674;2024-01-15T03:38:00;-19274.88;;;2.45
60731;BMP280;46580;52.114;11.674;2024-01-15T03:40:25;-19275.47;;;2.47
60731;BMP280;46580;52.114;11.674;2024-01-15T03:42:51;-19276.59;;;2.51
60731;BMP280;46580;52.114;11.674;2024-01-15T03:45:16;-19276.91;;;2.52
60731;BMP280;46580;52.114;11.674;2024-01-15T03:47:42;-19278.19;;;2.56
60731;BMP280;46580;52.114;11.674;2024-01-15T03:50:07;-19280.06;;;2.62
60731;BMP280;46580;52.114;11.674;2024-01-15T03:52:33;-19280.34;;;2.63
60731;BMP280;46580;52.114;11.674;2024-01-15T03:54:58;-19280.19;;;2.63
60731;BMP280;46580;52.114;11.674;2024-01-15T03:57:24;-19281.78;;;2.68
60731;BMP280;46580;52.114;11.674;2024-01-15T03:59:49;-19281.50;;;2.67
60731;BMP280;46580;52.114;11.674;2024-01-15T04:02:15;-19281.50;;;2.67
60731;BMP280;46580;52.114;11.674;2024-01-15T04:04:42;-19279.63;;;2.61
60731;BMP280;46580;52.114;11.674;2024-01-15T04:07:11;-19280.06;;;2.62
60731;BMP280;46580;52.114;11.674;2024-01-15T04:09:37;-19280.34;;;2.63
60731;BMP280;46580;52.114;11.674;2024-01-15T04:12:02;-19280.63;;;2.64
60731;BMP280;46580;52.114;11.674;2024-01-15T04:14:27;-19279.47;;;2.60
60731;BMP280;46580;52.114;11.674;2024-01-15T04:16:53;-19278.63;;;2.58
60731;BMP280;46580;52.114;11.674;2024-01-15T04:19:19;-19279.47;;;2.60
60731;BMP280;46580;52.114;11.674;2024-01-15T04:21:44;-19280.91;;;2.65
60731;BMP280;46580;52.114;11.674;2024-01-15T04:24:10;-19281.78;;;2.68
60731;BMP280;46580;52.114;11.674;2024-01-15T04:26:35;-19281.50;;;2.67
60731;BMP280;46580;52.114;11.674;2024-01-15T04:29:00;-19282.22;;;2.70
60731;BMP280;46580;52.114;11.674;2024-01-15T04:31:26;-19284.22;;;2.77
60731;BMP280;46580;52.114;11.674;2024-01-15T04:33:54;-19284.66;;;2.78
60731;BMP280;46580;52.114;11.674;2024-01-15T04:36:20;-19284.81;;;2.78
60731;BMP280;46580;52.114;11.674;2024-01-15T04:38:45;-19286.38;;;2.84
60731;BMP280;46580;52.114;11.674;2024-01-15T04:41:14;-19285.53;;;2.81
60731;BMP280;46580;52.114;11.674;2024-01-15T04:43:41;-19286.38;;;2.84
60731;BMP280;46580;52.114;11.674;2024-01-15T04:46:06;-19286.38;;;2.84
60731;BMP280;46580;52.114;11.674;2024-01-15T04:48:32;-19283.78;;;2.75
60731;BMP280;46580;52.114;11.674;2024-01-15T04:50:58;-19283.22;;;2.73
60731;BMP280;46580;52.114;11.674;2024-01-15T04:53:23;-19282.94;;;2.72
60731;BMP280;46580;52.114;11.674;2024-01-15T04:55:48;-19282.94;;;2.72
60731;BMP280;46580;52.114;11.674;2024-01-15T04:58:14;-19284.81;;;2.78
60731;BMP280;46580;52.114;11.674;2024-01-15T05:00:39;-19286.38;;;2.84
60731;BMP280;46580;52.114;11.674;2024-01-15T05:03:05;-19285.66;;;2.81
60731;BMP280;46580;52.114;11.674;2024-01-15T05:05:30;-19286.53;;;2.84
60731;BMP280;46580;52.114;11.674;2024-01-15T05:07:55;-19285.94;;;2.82
60731;BMP280;46580;52.114;11.674;2024-01-15T05:10:21;-19284.09;;;2.76
60731;BMP280;46580;52.114;11.674;2024-01-15T05:12:46;-19281.78;;;2.68
60731;BMP280;46580;52.114;11.674;2024-01-15T05:15:12;-19280.06;;;2.62
60731;BMP280;46580;52.114;11.674;2024-01-15T05:17:37;-19277.91;;;2.55
60731;BMP280;46580;52.114;11.674;2024-01-15T05:20:03;-19276.91;;;2.52
60731;BMP280;46580;52.114;11.674;2024-01-15T05:22:29;-19276.31;;;2.50
60731;BMP280;46580;52.114;11.674;2024-01-15T05:24:58;-19276.47;;;2.50
60731;BMP280;46580;52.114;11.674;2024-01-15T05:27:24;-19277.75;;;2.55
60731;BMP280;46580;52.114;11.674;2024-01-15T05:29:49;-19278.63;;;2.58
60731;BMP280;46580;52.114;11.674;2024-01-15T05:32:14;-19278.75;;;2.58
60731;BMP280;46580;52.114;11.674;2024-01-15T05:34:40;-19276.91;;;2.52
60731;BMP280;46580;52.114;11.674;2024-01-15T05:37:05;-19272.28;;;2.36
60731;BMP280;46580;52.114;11.674;2024-01-15T05:39:30;-19270.00;;;2.28
60731;BMP280;46580;52.114;11.674;2024-01-15T05:41:56;-19267.69;;;2.21
60731;BMP280;46580;52.114;11.674;2024-01-15T05:44:22;-19266.53;;;2.17
60731;BMP280;46580;52.114;11.674;2024-01-15T05:46:48;-19265.97;;;2.15
60731;BMP280;46580;52.114;11.674;2024-01-15T05:49:13;-19266.84;;;2.18
60731;BMP280;46580;52.114;11.674;2024-01-15T05:51:39;-19268.56;;;2.23
60731;BMP280;46580;52.114;11.674;2024-01-15T05:54:04;-19271.16;;;2.32
60731;BMP280;46580;52.114;11.674;2024-01-15T05:56:30;-19271.44;;;2.33
60731;BMP280;46580;52.114;11.674;2024-01-15T05:58:55;-19273.44;;;2.40
60731;BMP280;46580;52.114;11.674;2024-01-15T06:01:20;-19273.72;;;2.41
60731;BMP280;46580;52.114;11.674;2024-01-15T06:03:46;-19274.03;;;2.42
60731;BMP280;46580;52.114;11.674;2024-01-15T06:06:11;-19273.44;;;2.40
60731;BMP280;46580;52.114;11.674;2024-01-15T06:08:37;-19274.31;;;2.43
60731;BMP280;46580;52.114;11.674;2024-01-15T06:11:03;-19273.88;;;2.41
60731;BMP280;46580;52.114;11.674;2024-01-15T06:13:28;-19275.91;;;2.48
60731;BMP280;46580;52.114;11.674;2024-01-15T06:15:54;-19275.16;;;2.46
60731;BMP280;46580;52.114;11.674;2024-01-15T06:18:19;-19276.03;;;2.49
60731;BMP280;46580;52.114;11.674;2024-01-15T06:20:44;-19276.59;;;2.51
60731;BMP280;46580;52.114;11.674;2024-01-15T06:23:10;-19276.59;;;2.51
60731;BMP280;46580;52.114;11.674;2024-01-15T06:25:35;-19277.47;;;2.54
60731;BMP280;46580;52.114;11.674;2024-01-15T06:28:01;-19280.19;;;2.63
60731;BMP280;46580;52.114;11.674;2024-01-15T06:30:26;-19279.91;;;2.62
60731;BMP280;46580;52.114;11.674;2024-01-15T06:32:51;-19278.06;;;2.56
60731;BMP280;46580;52.114;11.674;2024-01-15T06:35:17;-19279.63;;;2.61
60731;BMP280;46580;52.114;11.674;2024-01-15T06:37:42;-19278.63;;;2.58
60731;BMP280;46580;52.114;11.674;2024-01-15T06:40:08;-19279.06;;;2.59
60731;BMP280;46580;52.114;11.674;2024-01-15T06:42:34;-19279.19;;;2.59
60731;BMP280;46580;52.114;11.674;2024-01-15T06:44:59;-19280.34;;;2.63
60731;BMP280;46580;52.114;11.674;2024-01-15T06:47:25;-19279.78;;;2.61
60731;BMP280;46580;52.114;11.674;2024-01-15T06:49:50;-19277.19;;;2.53
60731;BMP280;46580;52.114;11.674;2024-01-15T06:52:17;-19273.00;;;2.39
60731;BMP280;46580;52.114;11.674;2024-01-15T06:54:42;-19270.56;;;2.30
60731;BMP280;46580;52.114;11.674;2024-01-15T06:57:07;-19269.00;;;2.25
60731;BMP280;46580;52.114;11.674;2024-01-15T06:59:34;-19266.69;;;2.17
60731;BMP280;46580;52.114;11.674;2024-01-15T07:02:00;-19263.81;;;2.07
60731;BMP280;46580;52.114;11.674;2024-01-15T07:04:26;-19264.53;;;2.10
60731;BMP280;46580;52.114;11.674;2024-01-15T07:06:51;-19264.97;;;2.11
60731;BMP280;46580;52.114;11.674;2024-01-15T07:09:17;-19268.28;;;2.22
60731;BMP280;46580;52.114;11.674;2024-01-15T07:11:46;-19270.56;;;2.30
60731;BMP280;46580;52.114;11.674;2024-01-15T07:14:14;-19271.16;;;2.32
60731;BMP280;46580;52.114;11.674;2024-01-15T07:16:39;-19273.44;;;2.40
60731;BMP280;46580;52.114;11.674;2024-01-15T07:19:05;-19274.88;;;2.45
60731;BMP280;46580;52.114;11.674;2024-01-15T07:21:31;-19276.03;;;2.49
60731;BMP280;46580;52.114;11.674;2024-01-15T07:23:56;-19274.59;;;2.44
60731;BMP280;46580;52.114;11.674;2024-01-15T07:26:22;-19274.03;;;2.42
60731;BMP280;46580;52.114;11.674;2024-01-15T07:28:47;-19272.88;;;2.38
60731;BMP280;46580;52.114;11.674;2024-01-15T07:31:15;-19273.16;;;2.39
60731;BMP280;46580;52.114;11.674;2024-01-15T07:33:41;-19274.03;;;2.42
60731;BMP280;46580;52.114;11.674;2024-01-15T07:36:06;-19274.31;;;2.43
60731;BMP280;46580;52.114;11.674;2024-01-15T07:38:32;-19274.03;;;2.42
60731;BMP280;46580;52.114;11.674;2024-01-15T07:40:57;-19273.59;;;2.41
60731;BMP280;46580;52.114;11.674;2024-01-15T07:43:22;-19274.03;;;2.42
60731;BMP280;46580;52.114;11.674;2024-01-15T07:45:48;-19273.31;;;2.40
60731;BMP280;46580;52.114;11.674;2024-01-15T07:48:13;-19273.59;;;2.41
60731;BMP280;46580;52.114;11.674;2024-01-15T07:50:39;-19272.59;;;2.37
60731;BMP280;46580;52.114;11.674;2024-01-15T07:53:05;-19272.00;;;2.35
60731;BMP280;46580;52.114;11.674;2024-01-15T07:55:30;-19270.72;;;2.31
60731;BMP280;46580;52.114;11.674;2024-01-15T07:57:56;-19269.28;;;2.26
60731;BMP280;46580;52.114;11.674;2024-01-15T08:00:24;-19266.84;;;2.18
60731;BMP280;46580;52.114;11.674;2024-01-15T08:02:50;-19265.53;;;2.13
60731;BMP280;46580;52.114;11.674;2024-01-15T08:05:16;-19264.53;;;2.10
60731;BMP280;46580;52.114;11.674;2024-01-15T08:07:42;-19264.69;;;2.10
60731;BMP280;46580;52.114;11.674;2024-01-15T08:10:07;-19266.25;;;2.16
60731;BMP280;46580;52.114;11.674;2024-01-15T08:12:36;-19266.25;;;2.16
60731;BMP280;46580;52.114;11.674;2024-01-15T08:15:01;-19266.53;;;2.17
60731;BMP280;46580;52.114;11.674;2024-01-15T08:17:27;-19266.97;;;2.18
60731;BMP280;46580;52.114;11.674;2024-01-15T08:19:54;-19267.41;;;2.20
60731;BMP280;46580;52.114;11.674;2024-01-15T08:22:19;-19268.56;;;2.23
60731;BMP280;46580;52.114;11.674;2024-01-15T08:24:45;-19270.72;;;2.31
60731;BMP280;46580;52.114;11.674;2024-01-15T08:27:10;-19272.28;;;2.36
60731;BMP280;46580;52.114;11.674;2024-01-15T08:29:36;-19273.44;;;2.40
60731;BMP280;46580;52.114;11.674;2024-01-15T08:32:01;-19273.31;;;2.40
60731;BMP280;46580;52.114;11.674;2024-01-15T08:34:30;-19272.59;;;2.37
60731;BMP280;46580;52.114;11.674;2024-01-15T08:36:56;-19271.56;;;2.34
60731;BMP280;46580;52.114;11.674;2024-01-15T08:39:21;-19271.16;;;2.32
60731;BMP280;46580;52.114;11.674;2024-01-15T08:41:47;-19270.84;;;2.31
60731;BMP280;46580;52.114;11.674;2024-01-15T08:44:12;-19271.44;;;2.33
60731;BMP280;46580;52.114;11.674;2024-01-15T08:46:38;-19271.72;;;2.34
60731;BMP280;46580;52.114;11.674;2024-01-15T08:49:03;-19273.44;;;2.40
60731;BMP280;46580;52.114;11.674;2024-01-15T08:51:29;-19274.44;;;2.43
60731;BMP280;46580;52.114;11.674;2024-01-15T08:53:56;-19273.88;;;2.41
60731;BMP280;46580;52.114;11.674;2024-01-15T08:56:21;-19270.28;;;2.29
60731;BMP280;46580;52.114;11.674;2024-01-15T08:58:47;-19264.25;;;2.09
60731;BMP280;46580;52.114;11.674;2024-01-15T09:01:12;-19261.94;;;2.01
60731;BMP280;46580;52.114;11.674;2024-01-15T09:03:38;-19262.94;;;2.04
60731;BMP280;46580;52.114;11.674;2024-01-15T09:06:04;-19264.53;;;2.10
60731;BMP280;46580;52.114;11.674;2024-01-15T09:08:30;-19267.13;;;2.19
60731;BMP280;46580;52.114;11.674;2024-01-15T09:10:55;-19268.84;;;2.24
60731;BMP280;46580;52.114;11.674;2024-01-15T09:13:20;-19270.28;;;2.29
60731;BMP280;46580;52.114;11.674;2024-01-15T09:15:46;-19270.28;;;2.29
60731;BMP280;46580;52.114;11.674;2024-01-15T09:18:11;-19270.84;;;2.31
60731;BMP280;46580;52.114;11.674;2024-01-15T09:20:37;-19272.28;;;2.36
60731;BMP280;46580;52.114;11.674;2024-01-15T09:23:03;-19273.31;;;2.40
60731;BMP280;46580;52.114;11.674;2024-01-15T09:25:29;-19274.88;;;2.45
60731;BMP280;46580;52.114;11.674;2024-01-15T09:27:55;-19278.34;;;2.57
60731;BMP280;46580;52.114;11.674;2024-01-15T09:30:20;-19279.63;;;2.61
60731;BMP280;46580;52.114;11.674;2024-01-15T09:32:45;-19280.06;;;2.62
60731;BMP280;46580;52.114;11.674;2024-01-15T09:35:13;-19279.63;;;2.61
60731;BMP280;46580;52.114;11.674;2024-01-15T09:37:39;-19279.34;;;2.60
60731;BMP280;46580;52.114;11.674;2024-01-15T09:40:06;-19280.06;;;2.62
60731;BMP280;46580;52.114;11.674;2024-01-15T09:42:34;-19281.22;;;2.66
60731;BMP280;46580;52.114;11.674;2024-01-15T09:45:00;-19281.50;;;2.67
60731;BMP280;46580;52.114;11.674;2024-01-15T09:47:28;-19282.66;;;2.71
60731;BMP280;46580;52.114;11.674;2024-01-15T09:49:56;-19282.66;;;2.71
60731;BMP280;46580;52.114;11.674;2024-01-15T09:52:24;-19282.06;;;2.69
60731;BMP280;46580;52.114;11.674;2024-01-15T09:54:49;-19280.50;;;2.64
60731;BMP280;46580;52.114;11.674;2024-01-15T09:57:15;-19279.63;;;2.61
60731;BMP280;46580;52.114;11.674;2024-01-15T09:59:42;-19278.91;;;2.59
60731;BMP280;46580;52.114;11.674;2024-01-15T10:02:09;-19276.03;;;2.49
60731;BMP280;46580;52.114;11.674;2024-01-15T10:04:38;-19275.16;;;2.46
60731;BMP280;46580;52.114;11.674;2024-01-15T10:07:05;-19273.72;;;2.41
60731;BMP280;46580;52.114;11.674;2024-01-15T10:09:31;-19273.59;;;2.41
60731;BMP280;46580;52.114;11.674;2024-01-15T10:11:57;-19272.88;;;2.38
60731;BMP280;46580;52.114;11.674;2024-01-15T10:14:22;-19272.00;;;2.35
60731;BMP280;46580;52.114;11.674;2024-01-15T10:16:48;-19271.44;;;2.33
60731;BMP280;46580;52.114;11.674;2024-01-15T10:19:13;-19271.44;;;2.33
60731;BMP280;46580;52.114;11.674;2024-01-15T10:21:39;-19271.72;;;2.34
60731;BMP280;46580;52.114;11.674;2024-01-15T10:24:04;-19273.44;;;2.40
60731;BMP280;46580;52.114;11.674;2024-01-15T10:26:31;-19274.31;;;2.43
60731;BMP280;46580;52.114;11.674;2024-01-15T10:28:58;-19276.59;;;2.51
60731;BMP280;46580;52.114;11.674;2024-01-15T10:31:25;-19277.47;;;2.54
60731;BMP280;46580;52.114;11.674;2024-01-15T10:33:51;-19277.91;;;2.55
60731;BMP280;46580;52.114;11.674;2024-01-15T10:36:17;-19277.75;;;2.55
60731;BMP280;46580;52.114;11.674;2024-01-15T10:38:44;-19276.75;;;2.51
60731;BMP280;46580;52.114;11.674;2024-01-15T10:41:09;-19277.47;;;2.54
60731;BMP280;46580;52.114;11.674;2024-01-15T10:43:35;-19277.47;;;2.54
60731;BMP280;46580;52.114;11.674;2024-01-15T10:46:01;-19277.19;;;2.53
60731;BMP280;46580;52.114;11.674;2024-01-15T10:48:27;-19277.19;;;2.53
60731;BMP280;46580;52.114;11.674;2024-01-15T10:50:54;-19276.03;;;2.49
60731;BMP280;46580;52.114;11.674;2024-01-15T10:53:20;-19275.47;;;2.47
60731;BMP280;46580;52.114;11.674;2024-01-15T10:55:46;-19275.47;;;2.47
60731;BMP280;46580;52.114;11.674;2024-01-15T10:58:14;-19275.91;;;2.48
60731;BMP280;46580;52.114;11.674;2024-01-15T11:00:40;-19275.75;;;2.48
60731;BMP280;46580;52.114;11.674;2024-01-15T11:03:06;-19275.16;;;2.46
60731;BMP280;46580;52.114;11.674;2024-01-15T11:05:38;-19274.88;;;2.45
60731;BMP280;46580;52.114;11.674;2024-01-15T11:08:08;-19275.91;;;2.48
60731;BMP280;46580;52.114;11.674;2024-01-15T11:10:44;-19276.03;;;2.49
60731;BMP280;46580;52.114;11.674;2024-01-15T11:13:21;-19276.91;;;2.52
60731;BMP280;46580;52.114;11.674;2024-01-15T11:15:58;-19277.03;;;2.52
60731;BMP280;46580;52.114;11.674;2024-01-15T11:18:26;-19278.47;;;2.57
60731;BMP280;46580;52.114;11.674;2024-01-15T11:23:53;-19282.66;;;2.71
60731;BMP280;46580;52.114;11.674;2024-01-15T11:28:54;-19287.53;;;2.88
60731;BMP280;46580;52.114;11.674;2024-01-15T11:31:26;-19289.25;;;2.94
60731;BMP280;46580;52.114;11.674;2024-01-15T11:33:52;-19290.13;;;2.96
60731;BMP280;46580;52.114;11.674;2024-01-15T11:36:17;-19291.41;;;3.01
60731;BMP280;46580;52.114;11.674;2024-01-15T11:38:42;-19293.13;;;3.07
60731;BMP280;46580;52.114;11.674;2024-01-15T11:41:14;-19294.88;;;3.13
60731;BMP280;46580;52.114;11.674;2024-01-15T11:43:42;-19296.16;;;3.17
60731;BMP280;46580;52.114;11.674;2024-01-15T11:46:11;-19295.59;;;3.15
60731;BMP280;46580;52.114;11.674;2024-01-15T11:48:44;-19296.00;;;3.16
60731;BMP280;46580;52.114;11.674;2024-01-15T11:51:13;-19297.16;;;3.20
60731;BMP280;46580;52.114;11.674;2024-01-15T11:53:44;-19297.88;;;3.23
60731;BMP280;46580;52.114;11.674;2024-01-15T11:56:15;-19298.75;;;3.26
60731;BMP280;46580;52.114;11.674;2024-01-15T11:58:42;-19299.03;;;3.27
60731;BMP280;46580;52.114;11.674;2024-01-15T12:01:08;-19299.03;;;3.27
60731;BMP280;46580;52.114;11.674;2024-01-15T12:03:33;-19298.75;;;3.26
60731;BMP280;46580;52.114;11.674;2024-01-15T12:06:00;-19298.44;;;3.25
60731;BMP280;46580;52.114;11.674;2024-01-15T12:08:25;-19297.44;;;3.21
60731;BMP280;46580;52.114;11.674;2024-01-15T12:10:52;-19297.31;;;3.21
60731;BMP280;46580;52.114;11.674;2024-01-15T12:13:18;-19297.88;;;3.23
60731;BMP280;46580;52.114;11.674;2024-01-15T12:15:44;-19297.75;;;3.22
60731;BMP280;46580;52.114;11.674;2024-01-15T12:18:12;-19297.44;;;3.21
60731;BMP280;46580;52.114;11.674;2024-01-15T12:20:39;-19295.88;;;3.16
60731;BMP280;46580;52.114;11.674;2024-01-15T12:23:05;-19294.44;;;3.11
60731;BMP280;46580;52.114;11.674;2024-01-15T12:25:31;-19292.28;;;3.04
60731;BMP280;46580;52.114;11.674;2024-01-15T12:27:58;-19289.41;;;2.94
60731;BMP280;46580;52.114;11.674;2024-01-15T12:30:26;-19291.13;;;3.00
60731;BMP280;46580;52.114;11.674;2024-01-15T12:32:51;-19295.16;;;3.14
60731;BMP280;46580;52.114;11.674;2024-01-15T12:35:17;-19300.31;;;3.31
60731;BMP280;46580;52.114;11.674;2024-01-15T12:37:43;-19303.19;;;3.41
60731;BMP280;46580;52.114;11.674;2024-01-15T12:40:10;-19302.47;;;3.38
60731;BMP280;46580;52.114;11.674;2024-01-15T12:42:42;-19301.31;;;3.34
60731;BMP280;46580;52.114;11.674;2024-01-15T12:45:09;-19299.75;;;3.29
60731;BMP280;46580;52.114;11.674;2024-01-15T12:47:36;-19298.16;;;3.24
60731;BMP280;46580;52.114;11.674;2024-01-15T12:50:02;-19297.44;;;3.21
60731;BMP280;46580;52.114;11.674;2024-01-15T12:52:28;-19302.75;;;3.39
60731;BMP280;46580;52.114;11.674;2024-01-15T12:54:54;-19311.09;;;3.68
60731;BMP280;46580;52.114;11.674;2024-01-15T12:57:19;-19307.66;;;3.56
60731;BMP280;46580;52.114;11.674;2024-01-15T12:59:45;-19309.66;;;3.63
60731;BMP280;46580;52.114;11.674;2024-01-15T13:02:12;-19314.25;;;3.78
60731;BMP280;46580;52.114;11.674;2024-01-15T13:04:37;-19310.81;;;3.67
60731;BMP280;46580;52.114;11.674;2024-01-15T13:07:04;-19309.66;;;3.63
60731;BMP280;46580;52.114;11.674;2024-01-15T13:09:30;-19306.22;;;3.51
60731;BMP280;46580;52.114;11.674;2024-01-15T13:11:55;-19305.34;;;3.48
60731;BMP280;46580;52.114;11.674;2024-01-15T13:14:20;-19299.59;;;3.29
60731;BMP280;46580;52.114;11.674;2024-01-15T13:16:46;-19297.00;;;3.20
60731;BMP280;46580;52.114;11.674;2024-01-15T13:19:12;-19297.00;;;3.20
60731;BMP280;46580;52.114;11.674;2024-01-15T13:21:39;-19296.28;;;3.17
60731;BMP280;46580;52.114;11.674;2024-01-15T13:24:05;-19297.31;;;3.21
60731;BMP280;46580;52.114;11.674;2024-01-15T13:26:33;-19297.44;;;3.21
60731;BMP280;46580;52.114;11.674;2024-01-15T13:29:02;-19298.03;;;3.23
60731;BMP280;46580;52.114;11.674;2024-01-15T13:31:29;-19297.88;;;3.23
60731;BMP280;46580;52.114;11.674;2024-01-15T13:33:54;-19297.88;;;3.23
60731;BMP280;46580;52.114;11.674;2024-01-15T13:36:24;-19298.03;;;3.23
60731;BMP280;46580;52.114;11.674;2024-01-15T13:38:50;-19299.16;;;3.27
60731;BMP280;46580;52.114;11.674;2024-01-15T13:41:17;-19300.75;;;3.33
60731;BMP280;46580;52.114;11.674;2024-01-15T13:43:55;-19299.03;;;3.27
60731;BMP280;46580;52.114;11.674;2024-01-15T13:46:23;-19299.03;;;3.27
60731;BMP280;46580;52.114;11.674;2024-01-15T13:48:49;-19299.91;;;3.30
60731;BMP280;46580;52.114;11.674;2024-01-15T13:51:14;-19300.75;;;3.33
60731;BMP280;46580;52.114;11.674;2024-01-15T13:53:40;-19301.63;;;3.35
60731;BMP280;46580;52.114;11.674;2024-01-15T13:56:06;-19301.03;;;3.33